createdAt,value
2019-05-30T00:01:24.998Z,3.73
2019-05-30T00:04:00.474Z,3.60
2019-05-30T00:06:29.608Z,3.07
2019-05-30T00:09:05.314Z,3.27
2019-05-30T00:11:34.514Z,3.40
2019-05-30T00:14:10.218Z,3.37
2019-05-30T00:16:39.363Z,3.83
2019-05-30T00:19:08.573Z,3.80
2019-05-30T00:21:44.372Z,3.30
2019-05-30T00:24:19.871Z,3.93
2019-05-30T00:26:49.102Z,3.50
2019-05-30T00:29:31.850Z,4.10
2019-05-30T00:32:01.556Z,3.87
2019-05-30T00:34:30.847Z,3.63
2019-05-30T00:37:06.700Z,3.60
2019-05-30T00:39:43.415Z,3.40
2019-05-30T00:42:12.546Z,3.80
2019-05-30T00:44:55.879Z,3.50
2019-05-30T00:47:32.180Z,3.43
2019-05-30T00:50:07.658Z,3.40
2019-05-30T00:52:36.971Z,3.60
2019-05-30T00:55:07.081Z,3.67
2019-05-30T00:57:42.480Z,3.80
2019-05-30T01:00:12.028Z,3.37
2019-05-30T01:02:41.192Z,3.97
2019-05-30T01:05:17.535Z,3.80
2019-05-30T01:07:46.676Z,3.47
2019-05-30T01:10:22.707Z,3.80
2019-05-30T01:12:51.960Z,3.50
2019-05-30T01:15:21.167Z,3.77
2019-05-30T01:17:57.254Z,3.77
2019-05-30T01:20:26.414Z,3.57
2019-05-30T01:22:55.534Z,3.40
2019-05-30T01:25:31.743Z,3.77
2019-05-30T01:28:01.619Z,3.30
2019-05-30T01:30:58.946Z,3.07
2019-05-30T01:33:15.697Z,3.57
2019-05-30T01:35:44.800Z,3.27
2019-05-30T01:38:20.553Z,3.27
2019-05-30T01:40:49.749Z,4.23
2019-05-30T01:43:25.186Z,3.37
2019-05-30T01:46:02.102Z,3.63
2019-05-30T01:48:45.138Z,3.50
2019-05-30T01:51:14.316Z,3.50
2019-05-30T01:53:43.440Z,3.25
2019-05-30T01:56:18.950Z,3.60
2019-05-30T01:58:48.107Z,4.00
2019-05-30T02:01:25.702Z,3.97
2019-05-30T02:03:55.100Z,4.37
2019-05-30T02:06:24.223Z,3.63
2019-05-30T02:08:59.530Z,3.30
2019-05-30T02:11:28.679Z,3.90
2019-05-30T02:14:05.734Z,4.00
2019-05-30T02:16:35.084Z,3.63
2019-05-30T02:19:05.756Z,3.57
2019-05-30T02:21:41.944Z,3.70
2019-05-30T02:24:12.198Z,3.90
2019-05-30T02:26:48.467Z,3.80
2019-05-30T02:29:18.620Z,3.83
2019-05-30T02:32:03.116Z,3.90
2019-05-30T02:34:32.580Z,3.87
2019-05-30T02:37:03.255Z,3.63
2019-05-30T02:39:38.876Z,3.40
2019-05-30T02:42:09.666Z,3.83
2019-05-30T02:44:47.395Z,3.70
2019-05-30T02:47:23.335Z,3.73
2019-05-30T02:49:58.814Z,4.03
2019-05-30T02:52:27.962Z,3.77
2019-05-30T02:54:57.133Z,4.05
2019-05-30T02:57:32.439Z,3.43
2019-05-30T03:00:01.954Z,3.63
2019-05-30T03:02:32.453Z,3.40
2019-05-30T03:05:11.511Z,4.20
2019-05-30T03:07:39.313Z,4.20
2019-05-30T03:10:11.801Z,3.40
2019-05-30T03:12:45.915Z,3.52
2019-05-30T03:15:22.568Z,3.80
2019-05-30T03:17:51.709Z,3.67
2019-05-30T03:20:23.126Z,3.30
2019-05-30T03:22:58.728Z,3.80
2019-05-30T03:25:27.873Z,3.97
2019-05-30T03:28:05.225Z,3.30
2019-05-30T03:30:42.078Z,4.10
2019-05-30T03:33:36.122Z,3.60
2019-05-30T03:35:48.679Z,3.70
2019-05-30T03:38:17.866Z,3.03
2019-05-30T03:40:54.407Z,3.50
2019-05-30T03:43:23.531Z,4.17
2019-05-30T03:45:59.495Z,3.53
2019-05-30T03:48:37.919Z,3.70
2019-05-30T03:51:15.596Z,3.73
2019-05-30T03:53:44.765Z,3.70
2019-05-30T03:56:17.413Z,3.60
2019-05-30T03:59:12.616Z,3.57
2019-05-30T04:01:54.537Z,3.43
2019-05-30T04:04:33.736Z,4.10
2019-05-30T04:07:06.881Z,3.67
2019-05-30T04:09:45.743Z,3.80
2019-05-30T04:12:28.107Z,3.17
2019-05-30T04:15:11.836Z,3.30
2019-05-30T04:17:40.925Z,3.60
2019-05-30T04:20:20.546Z,3.53
2019-05-30T04:22:47.280Z,3.57
2019-05-30T04:25:16.750Z,4.50
2019-05-30T04:27:52.129Z,3.83
2019-05-30T04:30:21.351Z,3.90
2019-05-30T04:33:17.358Z,3.43
2019-05-30T04:35:35.150Z,3.93
2019-05-30T04:38:12.691Z,4.00
2019-05-30T04:40:42.110Z,3.70
2019-05-30T04:43:11.305Z,3.80
2019-05-30T04:45:46.981Z,3.40
2019-05-30T04:48:22.986Z,4.17
2019-05-30T04:50:58.442Z,3.60
2019-05-30T04:53:27.642Z,3.20
2019-05-30T04:56:03.134Z,3.80
2019-05-30T04:58:32.338Z,4.03
2019-05-30T05:01:08.558Z,3.70
2019-05-30T05:03:45.715Z,3.73
2019-05-30T05:06:08.396Z,3.93
2019-05-30T05:08:44.613Z,3.93
2019-05-30T05:11:16.523Z,3.50
2019-05-30T05:13:51.331Z,3.63
2019-05-30T05:16:33.677Z,3.93
2019-05-30T05:18:58.270Z,3.70
2019-05-30T05:21:27.468Z,3.80
2019-05-30T05:23:56.679Z,3.63
2019-05-30T05:26:32.607Z,3.53
2019-05-30T05:29:01.863Z,4.53
2019-05-30T05:31:37.193Z,3.57
2019-05-30T05:34:14.459Z,3.90
2019-05-30T05:36:50.131Z,4.03
2019-05-30T05:39:20.082Z,4.37
2019-05-30T05:41:49.394Z,3.67
2019-05-30T05:44:25.189Z,4.57
2019-05-30T05:47:01.719Z,3.73
2019-05-30T05:49:37.371Z,3.43
2019-05-30T05:52:06.521Z,4.10
2019-05-30T05:54:41.929Z,3.97
2019-05-30T05:57:11.143Z,3.80
2019-05-30T05:59:40.391Z,3.37
2019-05-30T06:02:17.606Z,4.77
2019-05-30T06:04:47.295Z,3.60
2019-05-30T06:07:23.079Z,3.67
2019-05-30T06:09:52.303Z,3.70
2019-05-30T06:12:28.813Z,3.80
2019-05-30T06:14:58.110Z,4.13
2019-05-30T06:17:27.256Z,4.20
2019-05-30T06:20:02.804Z,3.83
2019-05-30T06:22:31.937Z,4.10
2019-05-30T06:25:07.671Z,4.10
2019-05-30T06:27:36.786Z,3.67
2019-05-30T06:30:06.736Z,5.00
2019-05-30T06:32:43.256Z,4.53
2019-05-30T06:35:21.253Z,4.60
2019-05-30T06:37:56.814Z,3.90
2019-05-30T06:40:26.012Z,4.50
2019-05-30T06:42:55.150Z,4.20
2019-05-30T06:45:31.423Z,4.33
2019-05-30T06:48:07.189Z,4.53
2019-05-30T06:50:49.779Z,4.40
2019-05-30T06:53:18.979Z,4.03
2019-05-30T06:55:48.186Z,4.37
2019-05-30T06:58:43.669Z,4.10
2019-05-30T07:00:55.135Z,3.70
2019-05-30T07:03:30.652Z,4.90
2019-05-30T07:06:00.676Z,4.40
2019-05-30T07:08:36.428Z,4.70
2019-05-30T07:11:05.682Z,5.07
2019-05-30T07:13:34.832Z,4.80
2019-05-30T07:16:11.172Z,4.30
2019-05-30T07:18:40.230Z,4.77
2019-05-30T07:21:16.454Z,4.47
2019-05-30T07:23:45.584Z,4.20
2019-05-30T07:26:14.678Z,4.40
2019-05-30T07:28:50.257Z,5.10
2019-05-30T07:31:22.286Z,3.87
2019-05-30T07:34:04.920Z,4.23
2019-05-30T07:36:40.144Z,4.40
2019-05-30T07:39:16.070Z,4.63
2019-05-30T07:41:45.318Z,4.40
2019-05-30T07:44:14.442Z,4.13
2019-05-30T07:46:50.332Z,4.03
2019-05-30T07:49:28.233Z,4.03
2019-05-30T07:52:12.541Z,3.77
2019-05-30T07:54:43.874Z,3.30
2019-05-30T07:57:22.447Z,4.10
2019-05-30T07:59:52.942Z,4.30
2019-05-30T08:02:22.091Z,3.67
2019-05-30T08:04:57.472Z,4.07
2019-05-30T08:07:26.625Z,4.60
2019-05-30T08:10:02.727Z,5.20
2019-05-30T08:12:32.115Z,3.87
2019-05-30T08:15:08.315Z,4.30
2019-05-30T08:17:37.867Z,4.63
2019-05-30T08:20:08.246Z,4.20
2019-05-30T08:22:43.993Z,3.90
2019-05-30T08:25:14.771Z,4.53
2019-05-30T08:27:50.669Z,4.27
2019-05-30T08:30:26.094Z,4.33
2019-05-30T08:33:02.165Z,4.03
2019-05-30T08:35:47.552Z,9.00
2019-05-30T08:38:15.029Z,4.53
2019-05-30T08:40:44.257Z,4.00
2019-05-30T08:43:13.357Z,4.13
2019-05-30T08:45:49.612Z,4.07
2019-05-30T08:48:25.595Z,3.90
2019-05-30T08:51:08.565Z,4.57
2019-05-30T08:53:38.442Z,4.40
2019-05-30T08:56:07.788Z,4.30
2019-05-30T08:58:43.071Z,3.87
2019-05-30T09:01:12.209Z,4.53
2019-05-30T09:03:42.495Z,3.90
2019-05-30T09:06:17.933Z,4.47
2019-05-30T09:08:48.309Z,4.20
2019-05-30T09:11:24.150Z,4.23
2019-05-30T09:13:55.006Z,4.43
2019-05-30T09:16:32.202Z,4.37
2019-05-30T09:19:01.584Z,4.53
2019-05-30T09:21:30.759Z,4.10
2019-05-30T09:24:06.268Z,4.33
2019-05-30T09:26:35.580Z,4.17
2019-05-30T09:32:17.326Z,3.87
2019-05-30T09:34:48.842Z,4.00
2019-05-30T09:37:31.301Z,4.27
2019-05-30T09:40:00.855Z,3.60
2019-05-30T09:42:30.271Z,4.00
2019-05-30T09:45:06.571Z,4.30
2019-05-30T09:47:41.957Z,4.40
2019-05-30T09:50:19.440Z,3.70
2019-05-30T09:52:49.382Z,3.70
2019-05-30T09:55:20.960Z,3.40
2019-05-30T09:57:56.603Z,3.67
2019-05-30T10:00:26.039Z,4.57
2019-05-30T10:03:01.580Z,4.20
2019-05-30T10:05:30.732Z,3.60
2019-05-30T10:08:00.359Z,3.30
2019-05-30T10:10:39.720Z,3.63
2019-05-30T10:13:11.347Z,3.60
2019-05-30T10:15:47.069Z,3.43
2019-05-30T10:18:30.754Z,3.50
2019-05-30T10:21:12.608Z,3.87
2019-05-30T10:23:43.053Z,3.73
2019-05-30T10:26:20.268Z,4.13
2019-05-30T10:28:49.753Z,3.40
2019-05-30T10:31:33.800Z,3.00
2019-05-30T10:34:11.226Z,3.83
2019-05-30T10:36:54.056Z,3.70
2019-05-30T10:39:23.440Z,3.07
2019-05-30T10:41:57.190Z,3.60
2019-05-30T10:44:34.255Z,3.97
2019-05-30T10:47:03.456Z,3.83
2019-05-30T10:49:35.001Z,3.33
2019-05-30T10:52:13.087Z,3.63
2019-05-30T10:54:42.817Z,3.33
2019-05-30T10:57:12.175Z,3.00
2019-05-30T10:59:50.828Z,3.27
2019-05-30T11:02:59.333Z,3.67
2019-05-30T11:05:35.081Z,2.73
2019-05-30T11:08:09.027Z,3.40
2019-05-30T11:10:48.490Z,3.70
2019-05-30T11:13:18.497Z,4.67
2019-05-30T11:15:51.614Z,3.73
2019-05-30T11:18:28.206Z,3.37
2019-05-30T11:20:58.713Z,3.80
2019-05-30T11:23:38.203Z,4.20
2019-05-30T11:26:09.128Z,4.37
2019-05-30T11:28:38.423Z,4.37
2019-05-30T11:31:14.227Z,3.80
2019-05-30T11:33:52.886Z,3.77
2019-05-30T11:36:39.093Z,2.93
2019-05-30T11:39:15.774Z,3.37
2019-05-30T11:41:57.662Z,3.30
2019-05-30T11:44:38.142Z,4.00
2019-05-30T11:47:07.529Z,3.50
2019-05-30T11:49:36.663Z,3.40
2019-05-30T11:52:13.174Z,3.70
2019-05-30T11:54:42.874Z,3.53
2019-05-30T11:57:18.956Z,3.40
2019-05-30T11:59:50.072Z,3.63
2019-05-30T12:02:26.691Z,3.53
2019-05-30T12:04:56.576Z,4.30
2019-05-30T12:07:54.819Z,3.37
2019-05-30T12:10:26.233Z,3.77
2019-05-30T12:13:15.892Z,3.77
2019-05-30T12:15:45.226Z,3.40
2019-05-30T12:18:14.518Z,3.50
2019-05-30T12:20:51.686Z,3.23
2019-05-30T12:23:21.080Z,3.57
2019-05-30T12:26:00.200Z,3.50
2019-05-30T12:28:29.745Z,2.80
2019-05-30T12:31:04.052Z,3.40
2019-05-30T12:33:37.095Z,3.53
2019-05-30T12:36:19.541Z,3.90
2019-05-30T12:38:56.274Z,3.63
2019-05-30T12:41:26.045Z,3.37
2019-05-30T12:43:55.316Z,3.00
2019-05-30T12:46:31.293Z,3.03
2019-05-30T12:49:01.602Z,3.20
2019-05-30T12:51:37.673Z,2.80
2019-05-30T12:54:10.056Z,2.63
2019-05-30T12:56:46.104Z,3.60
2019-05-30T12:59:24.011Z,2.77
2019-05-30T13:01:49.162Z,3.03
2019-05-30T13:04:25.089Z,3.77
2019-05-30T13:06:57.734Z,3.20
2019-05-30T13:09:39.900Z,3.80
2019-05-30T13:12:29.424Z,3.53
2019-05-30T13:18:10.902Z,3.00
2019-05-30T13:20:40.477Z,2.83
2019-05-30T13:23:16.243Z,3.50
2019-05-30T13:25:45.461Z,3.60
2019-05-30T13:28:14.644Z,3.00
2019-05-30T13:31:10.124Z,3.20
2019-05-30T13:33:40.673Z,2.90
2019-05-30T13:36:18.672Z,2.83
2019-05-30T13:38:54.250Z,3.27
2019-05-30T13:41:30.177Z,4.97
2019-05-30T13:44:03.870Z,3.20
2019-05-30T13:46:37.739Z,3.87
2019-05-30T13:49:07.279Z,4.07
2019-05-30T13:51:36.662Z,5.10
2019-05-30T13:54:12.825Z,5.63
2019-05-30T13:56:42.031Z,5.93
2019-05-30T13:59:18.100Z,5.30
2019-05-30T14:01:47.627Z,5.60
2019-05-30T14:04:42.075Z,5.27
2019-05-30T14:07:11.333Z,4.43
2019-05-30T14:09:40.556Z,4.37
2019-05-30T14:12:19.579Z,4.30
2019-05-30T14:14:51.327Z,4.40
2019-05-30T14:17:29.946Z,3.90
2019-05-30T14:20:08.953Z,4.13
2019-05-30T14:22:47.160Z,5.47
2019-05-30T14:25:17.305Z,4.97
2019-05-30T14:27:46.761Z,5.10
2019-05-30T14:30:29.726Z,4.53
2019-05-30T14:32:58.884Z,4.03
2019-05-30T14:35:37.385Z,4.00
2019-05-30T14:38:13.355Z,4.27
2019-05-30T14:40:51.101Z,4.30
2019-05-30T14:43:20.861Z,4.50
2019-05-30T14:46:16.689Z,4.90
2019-05-30T14:48:46.404Z,5.13
2019-05-30T14:51:15.617Z,4.60
2019-05-30T14:53:53.265Z,5.30
2019-05-30T14:56:25.437Z,5.20
2019-05-30T14:59:01.551Z,6.07
2019-05-30T15:01:33.241Z,4.87
2019-05-30T15:04:13.423Z,4.60
2019-05-30T15:06:43.213Z,5.20
2019-05-30T15:09:22.429Z,5.70
2019-05-30T15:12:10.552Z,5.47
2019-05-30T15:18:06.852Z,6.07
2019-05-30T15:20:36.443Z,4.90
2019-05-30T15:23:13.884Z,4.63
2019-05-30T15:25:43.513Z,5.50
2019-05-30T15:28:14.513Z,4.97
2019-05-30T15:31:10.649Z,4.80
2019-05-30T15:34:08.577Z,4.73
2019-05-30T15:36:42.385Z,6.50
2019-05-30T15:39:32.761Z,5.13
2019-05-30T15:41:59.657Z,5.03
2019-05-30T15:44:36.429Z,4.90
2019-05-30T15:47:07.898Z,5.00
2019-05-30T15:49:52.453Z,5.17
2019-05-30T15:52:22.562Z,4.90
2019-05-30T15:54:52.104Z,5.13
2019-05-30T15:57:28.530Z,4.60
2019-05-30T15:59:58.847Z,7.97
2019-05-30T16:02:28.048Z,5.63
2019-05-30T16:05:04.713Z,5.00
2019-05-30T16:07:33.821Z,6.83
2019-05-30T16:10:10.856Z,6.13
2019-05-30T16:12:40.341Z,4.20
2019-05-30T16:15:11.620Z,4.23
2019-05-30T16:17:47.650Z,4.83
2019-05-30T16:20:18.012Z,5.30
2019-05-30T16:22:54.489Z,4.23
2019-05-30T16:25:23.702Z,4.63
2019-05-30T16:27:53.019Z,3.60
2019-05-30T16:30:28.767Z,3.33
2019-05-30T16:32:58.001Z,3.90
2019-05-30T16:35:27.996Z,4.10
2019-05-30T16:38:03.523Z,4.00
2019-05-30T16:40:39.755Z,5.17
2019-05-30T16:43:16.054Z,4.47
2019-05-30T16:45:45.608Z,5.00
2019-05-30T16:48:14.965Z,4.53
2019-05-30T16:50:51.090Z,4.70
2019-05-30T16:53:23.112Z,5.03
2019-05-30T16:55:57.972Z,4.60
2019-05-30T16:58:27.186Z,3.97
2019-05-30T17:01:03.357Z,4.57
2019-05-30T17:03:32.810Z,5.37
2019-05-30T17:06:02.048Z,6.10
2019-05-30T17:08:37.776Z,5.50
2019-05-30T17:11:07.006Z,4.57
2019-05-30T17:13:42.784Z,5.40
2019-05-30T17:16:12.041Z,5.60
2019-05-30T17:18:54.615Z,5.63
2019-05-30T17:21:24.711Z,5.27
2019-05-30T17:23:54.069Z,5.57
2019-05-30T17:26:30.909Z,7.40
2019-05-30T17:29:06.471Z,8.80
2019-05-30T17:31:35.662Z,5.53
2019-05-30T17:34:04.971Z,5.93
2019-05-30T17:36:59.820Z,6.27
2019-05-30T17:39:35.468Z,4.67
2019-05-30T17:42:11.632Z,5.30
2019-05-30T17:44:47.989Z,5.70
2019-05-30T17:47:17.812Z,4.70
2019-05-30T17:49:47.212Z,4.33
2019-05-30T17:52:24.039Z,4.40
2019-05-30T17:54:53.348Z,4.47
2019-05-30T17:57:30.181Z,4.27
2019-05-30T17:59:59.565Z,4.63
2019-05-30T18:02:35.364Z,4.23
2019-05-30T18:05:05.756Z,4.00
2019-05-30T18:07:42.038Z,3.83
2019-05-30T18:10:11.656Z,3.90
2019-05-30T18:12:40.909Z,4.07
2019-05-30T18:15:17.971Z,4.30
2019-05-30T18:17:54.839Z,4.10
2019-05-30T18:20:47.618Z,3.80
2019-05-30T18:23:08.673Z,4.13
2019-05-30T18:25:37.923Z,3.93
2019-05-30T18:28:14.645Z,3.90
2019-05-30T18:30:44.255Z,5.10
2019-05-30T18:33:13.633Z,4.83
2019-05-30T18:35:49.970Z,4.47
2019-05-30T18:38:26.390Z,4.10
2019-05-30T18:41:11.606Z,4.40
2019-05-30T18:43:41.303Z,4.10
2019-05-30T18:46:10.529Z,4.40
2019-05-30T18:48:39.715Z,3.80
2019-05-30T18:51:15.780Z,4.10
2019-05-30T18:53:46.687Z,5.13
2019-05-30T18:56:22.817Z,4.00
2019-05-30T18:58:52.021Z,5.17
2019-05-30T19:01:29.525Z,4.17
2019-05-30T19:03:58.962Z,4.47
2019-05-30T19:06:36.250Z,5.20
2019-05-30T19:09:07.359Z,5.80
2019-05-30T19:11:38.375Z,6.00
2019-05-30T19:14:14.987Z,4.43
2019-05-30T19:16:44.143Z,4.63
2019-05-30T19:19:27.714Z,4.33
2019-05-30T19:21:58.152Z,4.47
2019-05-30T19:24:34.243Z,4.70
2019-05-30T19:27:03.767Z,3.80
2019-05-30T19:29:32.984Z,3.97
2019-05-30T19:32:08.849Z,4.57
2019-05-30T19:34:38.072Z,4.50
2019-05-30T19:37:14.088Z,4.57
2019-05-30T19:39:43.303Z,4.10
2019-05-30T19:42:25.510Z,4.17
2019-05-30T19:44:54.684Z,4.73
2019-05-30T19:47:30.599Z,5.00
2019-05-30T19:50:01.251Z,4.30
2019-05-30T19:52:30.982Z,3.57
2019-05-30T19:55:06.958Z,3.90
2019-05-30T19:57:55.273Z,3.10
2019-05-30T20:00:34.031Z,3.67
2019-05-30T20:03:04.652Z,3.33
2019-05-30T20:05:34.532Z,4.27
2019-05-30T20:08:10.337Z,4.50
2019-05-30T20:10:41.868Z,4.37
2019-05-30T20:13:21.031Z,4.67
2019-05-30T20:15:50.546Z,4.70
2019-05-30T20:18:35.486Z,4.80
2019-05-30T20:21:11.812Z,4.27
2019-05-30T20:23:55.323Z,4.70
2019-05-30T20:26:18.565Z,4.10
2019-05-30T20:28:47.837Z,4.13
2019-05-30T20:31:45.791Z,3.77
2019-05-30T20:34:16.284Z,4.20
2019-05-30T20:36:46.844Z,3.90
2019-05-30T20:39:23.433Z,3.50
2019-05-30T20:41:59.790Z,3.87
2019-05-30T20:44:36.847Z,4.23
2019-05-30T20:47:06.273Z,4.97
2019-05-30T20:49:35.585Z,4.77
2019-05-30T20:52:12.285Z,4.53
2019-05-30T20:54:41.543Z,4.90
2019-05-30T20:57:10.843Z,4.57
2019-05-30T20:59:47.210Z,4.83
2019-05-30T21:02:18.885Z,4.17
2019-05-30T21:04:50.487Z,4.70
2019-05-30T21:07:26.740Z,4.53
2019-05-30T21:09:56.386Z,4.70
2019-05-30T21:15:23.546Z,5.47
2019-05-30T21:18:01.002Z,5.23
2019-05-30T21:20:37.810Z,5.17
2019-05-30T21:23:20.790Z,5.00
2019-05-30T21:25:50.034Z,4.87
2019-05-30T21:28:19.311Z,4.80
2019-05-30T21:30:55.376Z,4.60
2019-05-30T21:33:24.758Z,5.63
2019-05-30T21:36:04.013Z,5.63
2019-05-30T21:38:33.365Z,5.80
2019-05-30T21:41:09.445Z,5.50
2019-05-30T21:43:44.905Z,5.40
2019-05-30T21:46:20.317Z,5.83
2019-05-30T21:48:51.161Z,5.60
2019-05-30T21:51:20.404Z,5.87
2019-05-30T21:53:55.926Z,6.20
2019-05-30T21:56:26.829Z,5.33
2019-05-30T21:59:02.447Z,5.80
2019-05-30T22:01:36.650Z,5.97
2019-05-30T22:04:14.206Z,5.63
2019-05-30T22:06:44.891Z,5.90
2019-05-30T22:09:20.878Z,5.93
2019-05-30T22:11:50.150Z,7.07
2019-05-30T22:14:26.130Z,6.10
2019-05-30T22:16:55.374Z,6.20
2019-05-30T22:19:24.617Z,5.07
2019-05-30T22:22:07.909Z,6.00
2019-05-30T22:24:37.225Z,5.60
2019-05-30T22:27:13.161Z,6.10
2019-05-30T22:29:42.294Z,5.70
2019-05-30T22:32:17.687Z,4.97
2019-05-30T22:34:47.001Z,5.27
2019-05-30T22:37:23.203Z,5.70
2019-05-30T22:39:53.047Z,7.23
2019-05-30T22:42:35.342Z,6.00
2019-05-30T22:45:04.774Z,6.10
2019-05-30T22:47:40.291Z,5.87
2019-05-30T22:50:09.529Z,5.30
2019-05-30T22:52:40.827Z,5.77
2019-05-30T22:55:16.734Z,4.97
2019-05-30T22:57:46.427Z,5.60
2019-05-30T23:00:22.753Z,5.43
2019-05-30T23:02:52.122Z,5.60
2019-05-30T23:05:27.687Z,4.93
2019-05-30T23:08:00.135Z,6.80
2019-05-30T23:10:29.571Z,5.80
2019-05-30T23:13:06.203Z,5.30
2019-05-30T23:15:35.343Z,5.50
2019-05-30T23:18:10.833Z,5.10
2019-05-30T23:20:46.844Z,5.20
2019-05-30T23:23:29.753Z,8.20
2019-05-30T23:25:58.882Z,7.70
2019-05-30T23:28:28.741Z,6.00
2019-05-30T23:31:06.305Z,8.30
2019-05-30T23:33:36.514Z,6.60
2019-05-30T23:36:12.771Z,10.23
2019-05-30T23:38:42.005Z,11.00
2019-05-30T23:41:24.264Z,6.60
2019-05-30T23:44:03.648Z,7.53
2019-05-30T23:46:30.711Z,5.30
2019-05-30T23:49:06.280Z,6.40
2019-05-30T23:51:42.701Z,6.57
2019-05-30T23:54:12.061Z,5.40
2019-05-30T23:56:42.389Z,4.87
2019-05-30T23:59:19.291Z,5.13
